createdAt,value
2022-09-14T00:01:31.676Z,1.2
2022-09-14T00:06:33.775Z,1.3
2022-09-14T00:11:35.831Z,1.4
2022-09-14T00:16:38.298Z,1.3
2022-09-14T00:21:41.139Z,1.3
2022-09-14T00:26:43.404Z,1.2
2022-09-14T00:31:48.166Z,2.1
2022-09-14T00:36:48.700Z,1.4
2022-09-14T00:41:50.833Z,1.5
2022-09-14T00:46:59.414Z,1.5
2022-09-14T00:51:57.452Z,1.4
2022-09-14T00:56:59.962Z,1.5
2022-09-14T01:02:02.109Z,1.6
2022-09-14T01:07:04.244Z,1.4
2022-09-14T01:12:06.268Z,1.5
2022-09-14T01:17:08.699Z,1.4
2022-09-14T01:22:10.899Z,1.3
2022-09-14T01:27:13.036Z,1.5
2022-09-14T01:32:15.062Z,1.5
2022-09-14T01:37:17.279Z,1.6
2022-09-14T01:42:19.336Z,1.5
2022-09-14T01:47:21.340Z,1.6
2022-09-14T01:52:23.574Z,1.6
2022-09-14T01:57:25.810Z,1.5
2022-09-14T02:02:28.080Z,1.6
2022-09-14T02:07:30.909Z,1.6
2022-09-14T02:12:34.036Z,1.6
2022-09-14T02:17:38.635Z,1.6
2022-09-14T02:22:41.317Z,1.5
2022-09-14T02:27:44.812Z,1.6
2022-09-14T02:32:46.996Z,1.6
2022-09-14T02:37:48.911Z,1.6
2022-09-14T02:42:51.075Z,1.8
2022-09-14T02:47:53.094Z,1.6
2022-09-14T02:52:55.138Z,1.6
2022-09-14T02:57:57.314Z,1.8
2022-09-14T03:02:58.082Z,1.8
2022-09-14T03:08:00.054Z,1.6
2022-09-14T03:13:02.270Z,1.7
2022-09-14T03:18:04.346Z,1.8
2022-09-14T03:23:06.509Z,1.9
2022-09-14T03:28:08.542Z,1.9
2022-09-14T03:33:10.705Z,1.8
2022-09-14T03:38:12.850Z,1.9
2022-09-14T03:43:14.888Z,1.9
2022-09-14T03:48:16.869Z,2
2022-09-14T03:53:18.989Z,2
2022-09-14T03:58:20.938Z,1.9
2022-09-14T04:03:23.036Z,1.9
2022-09-14T04:08:27.364Z,2
2022-09-14T04:13:29.405Z,1.9
2022-09-14T04:18:32.391Z,2.2
2022-09-14T04:23:56.865Z,2.1
2022-09-14T04:28:36.988Z,2.1
2022-09-14T04:33:38.921Z,2.3
2022-09-14T04:38:40.940Z,2.3
2022-09-14T04:43:42.995Z,2.2
2022-09-14T04:48:45.264Z,2.2
2022-09-14T04:53:47.253Z,2.4
2022-09-14T04:58:52.592Z,2.2
2022-09-14T05:03:54.746Z,2.1
2022-09-14T05:08:56.849Z,2.2
2022-09-14T05:13:59.152Z,2.1
2022-09-14T05:19:01.462Z,2.2
2022-09-14T05:24:05.707Z,2.2
2022-09-14T05:29:07.869Z,2.6
2022-09-14T05:34:09.843Z,2.3
2022-09-14T05:39:11.790Z,2.4
2022-09-14T05:44:13.843Z,2.4
2022-09-14T05:49:15.710Z,2.4
2022-09-14T05:54:17.689Z,2.4
2022-09-14T05:59:19.733Z,2.5
2022-09-14T06:04:21.694Z,2.2
2022-09-14T06:09:23.660Z,2.3
2022-09-14T06:14:27.238Z,2.1
2022-09-14T06:19:29.543Z,2.2
2022-09-14T06:24:31.739Z,3.2
2022-09-14T06:29:33.722Z,2.2
2022-09-14T06:34:35.803Z,1.9
2022-09-14T06:39:37.784Z,2
2022-09-14T06:44:39.779Z,1.8
2022-09-14T06:49:41.838Z,1.9
2022-09-14T06:54:43.829Z,1.8
2022-09-14T06:59:45.975Z,2.2
2022-09-14T07:04:48.096Z,1.8
2022-09-14T07:09:50.071Z,1.6
2022-09-14T07:14:52.051Z,1.6
2022-09-14T07:19:54.187Z,1.7
2022-09-14T07:24:56.294Z,1.9
2022-09-14T07:29:58.206Z,1.6
2022-09-14T07:35:00.555Z,1.7
2022-09-14T07:40:02.851Z,1.8
2022-09-14T07:45:05.506Z,2
2022-09-14T07:50:07.694Z,1.6
2022-09-14T07:55:09.765Z,1.8
2022-09-14T08:00:12.097Z,2
2022-09-14T08:05:14.412Z,2.1
2022-09-14T08:10:16.585Z,2.5
2022-09-14T08:15:18.948Z,2
2022-09-14T08:20:24.501Z,1.9
2022-09-14T08:25:27.834Z,1.9
2022-09-14T08:30:32.981Z,2
2022-09-14T08:35:58.385Z,1.6
2022-09-14T08:40:41.559Z,1.7
2022-09-14T08:45:44.099Z,2.2
2022-09-14T08:50:46.360Z,1.7
2022-09-14T08:55:48.361Z,1.9
2022-09-14T09:00:50.583Z,1.6
2022-09-14T09:05:52.900Z,1.7
2022-09-14T09:10:55.346Z,1.7
2022-09-14T09:15:57.596Z,2.3
2022-09-14T09:21:01.210Z,1.4
2022-09-14T09:26:03.573Z,1.3
2022-09-14T09:31:05.715Z,1.3
2022-09-14T09:36:15.196Z,1.4
2022-09-14T09:41:17.575Z,1.2
2022-09-14T09:46:20.812Z,1.4
2022-09-14T09:51:25.007Z,1.2
2022-09-14T09:56:29.145Z,1.2
2022-09-14T10:01:31.935Z,1.2
2022-09-14T10:06:36.122Z,1.1
2022-09-14T10:11:38.233Z,1.2
2022-09-14T10:16:40.525Z,1.3
2022-09-14T10:21:42.827Z,1.3
2022-09-14T10:26:45.447Z,1.1
2022-09-14T10:31:48.078Z,1.1
2022-09-14T10:36:50.138Z,1.1
2022-09-14T10:41:52.135Z,1.1
2022-09-14T10:46:54.291Z,1.1
2022-09-14T10:51:56.647Z,1.1
2022-09-14T10:56:58.720Z,1.1
2022-09-14T11:02:01.356Z,1.1
2022-09-14T11:07:04.349Z,1.1
2022-09-14T11:12:06.627Z,1.2
2022-09-14T11:17:08.667Z,1.2
2022-09-14T11:22:10.921Z,1.2
2022-09-14T11:27:13.833Z,1.4
2022-09-14T11:32:22.716Z,1.3
2022-09-14T11:37:24.921Z,1
2022-09-14T11:42:26.855Z,1.2
2022-09-14T11:47:28.838Z,1.2
2022-09-14T11:52:30.853Z,1.1
2022-09-14T11:57:32.712Z,1.4
2022-09-14T12:02:34.713Z,1.3
2022-09-14T12:07:36.809Z,1.2
2022-09-14T12:12:38.697Z,1.3
2022-09-14T12:17:42.064Z,1.5
2022-09-14T12:22:50.485Z,1.4
2022-09-14T12:27:52.930Z,1.3
2022-09-14T12:32:54.861Z,2.5
2022-09-14T12:37:56.757Z,1.4
2022-09-14T12:42:58.720Z,1.3
2022-09-14T12:48:00.671Z,1.5
2022-09-14T12:53:02.744Z,1.3
2022-09-14T12:58:04.732Z,1.3
2022-09-14T13:03:06.663Z,1.1
2022-09-14T13:08:08.630Z,1.3
2022-09-14T13:13:10.622Z,1.2
2022-09-14T13:18:12.565Z,1.7
2022-09-14T13:23:15.589Z,2.4
2022-09-14T13:28:17.907Z,1.8
2022-09-14T13:33:24.961Z,1.6
2022-09-14T13:38:27.714Z,1.3
2022-09-14T13:43:29.741Z,1.7
2022-09-14T13:48:31.657Z,1.7
2022-09-14T13:53:33.608Z,1.6
2022-09-14T13:58:36.653Z,1.5
2022-09-14T14:03:38.840Z,1.5
2022-09-14T14:08:41.040Z,1.7
2022-09-14T14:13:43.095Z,1.5
2022-09-14T14:18:45.218Z,1.7
2022-09-14T14:24:13.261Z,1.4
2022-09-14T14:28:56.512Z,1.7
2022-09-14T14:33:57.300Z,1.4
2022-09-14T14:38:59.469Z,2.2
2022-09-14T14:44:13.443Z,2.3
2022-09-14T14:49:07.051Z,1.6
2022-09-14T14:54:17.130Z,1.5
2022-09-14T14:59:19.050Z,1.6
2022-09-14T15:04:25.082Z,1.8
2022-09-14T15:09:30.358Z,1.8
2022-09-14T15:14:47.597Z,1.9
2022-09-14T15:19:39.107Z,1.7
2022-09-14T15:24:49.874Z,1.7
2022-09-14T15:29:48.592Z,1.8
2022-09-14T15:34:50.851Z,1.7
2022-09-14T15:39:53.426Z,1.7
2022-09-14T15:44:55.793Z,1.9
2022-09-14T15:49:58.122Z,1.9
2022-09-14T15:55:00.258Z,2
2022-09-14T16:00:02.217Z,2.4
2022-09-14T16:05:04.279Z,3
2022-09-14T16:10:06.596Z,2.1
2022-09-14T16:15:08.624Z,2.4
2022-09-14T16:20:10.651Z,2.2
2022-09-14T16:25:12.877Z,2.1
2022-09-14T16:30:15.303Z,2
2022-09-14T16:35:17.260Z,2
2022-09-14T16:40:19.779Z,1.9
2022-09-14T16:45:22.560Z,1.9
2022-09-14T16:50:27.795Z,2
2022-09-14T16:55:32.916Z,2
2022-09-14T17:00:35.036Z,2
2022-09-14T17:05:41.693Z,1.9
2022-09-14T17:10:58.148Z,2
2022-09-14T17:15:55.111Z,1.8
2022-09-14T17:20:58.910Z,2.1
2022-09-14T17:26:03.240Z,2.1
2022-09-14T17:31:08.455Z,2.3
2022-09-14T17:36:12.792Z,2.3
2022-09-14T17:41:18.689Z,3.1
2022-09-14T17:46:24.333Z,2.9
2022-09-14T17:51:30.053Z,2.4
2022-09-14T17:56:34.701Z,2.8
2022-09-14T18:01:40.851Z,2.6
2022-09-14T18:06:43.353Z,2.6
2022-09-14T18:11:45.494Z,2.5
2022-09-14T18:16:47.986Z,2.8
2022-09-14T18:21:53.861Z,2.7
2022-09-14T18:26:59.307Z,3.3
2022-09-14T18:32:04.819Z,2.7
2022-09-14T18:37:09.139Z,2.5
2022-09-14T18:42:14.622Z,2.2
2022-09-14T18:47:21.571Z,2.2
2022-09-14T18:52:26.589Z,2.3
2022-09-14T18:57:28.605Z,2
2022-09-14T19:02:30.820Z,2.1
2022-09-14T19:07:34.458Z,1.9
2022-09-14T19:12:38.646Z,2.2
2022-09-14T19:17:40.888Z,2
2022-09-14T19:22:44.241Z,2.1
2022-09-14T19:27:50.813Z,1.6
2022-09-14T19:32:53.813Z,1.6
2022-09-14T19:37:56.067Z,1.5
2022-09-14T19:42:58.361Z,1.5
2022-09-14T19:48:00.613Z,1.6
2022-09-14T19:53:05.459Z,1.4
2022-09-14T19:58:07.656Z,1.5
2022-09-14T20:03:09.826Z,1.3
2022-09-14T20:08:12.516Z,1.2
2022-09-14T20:13:14.777Z,1.4
2022-09-14T20:18:16.846Z,1.1
2022-09-14T20:23:18.796Z,1.4
2022-09-14T20:28:20.836Z,1.5
2022-09-14T20:33:23.261Z,1.3
2022-09-14T20:38:25.293Z,1.5
2022-09-14T20:43:27.382Z,1.4
2022-09-14T20:48:29.359Z,1.5
2022-09-14T20:53:31.383Z,1.5
2022-09-14T20:58:33.306Z,1.5
2022-09-14T21:03:35.480Z,1.4
2022-09-14T21:08:37.559Z,1.4
2022-09-14T21:13:39.603Z,1.6
2022-09-14T21:18:41.917Z,1.6
2022-09-14T21:23:44.125Z,1.6
2022-09-14T21:28:44.898Z,1.6
2022-09-14T21:33:46.971Z,1.4
2022-09-14T21:38:48.962Z,1.6
2022-09-14T21:43:51.278Z,1.5
2022-09-14T21:48:53.581Z,1.2
2022-09-14T21:53:55.760Z,2.9
2022-09-14T21:58:57.944Z,1.7
2022-09-14T22:04:00.107Z,1.7
2022-09-14T22:09:02.300Z,2.1
2022-09-14T22:14:04.346Z,2
2022-09-14T22:19:06.570Z,1.5
2022-09-14T22:24:08.874Z,1.4
2022-09-14T22:29:11.768Z,1.6
2022-09-14T22:34:14.837Z,1.7
2022-09-14T22:44:27.684Z,2.1
2022-09-14T22:49:30.626Z,2.5
2022-09-14T22:54:33.425Z,1.9
2022-09-14T22:59:36.050Z,1.8
2022-09-14T23:04:38.133Z,2
2022-09-14T23:09:40.148Z,1.7
2022-09-14T23:14:42.276Z,1.6
2022-09-14T23:19:44.283Z,1.8
2022-09-14T23:24:46.320Z,1.7
2022-09-14T23:29:48.311Z,1.6
2022-09-14T23:34:50.785Z,1.6
2022-09-14T23:39:53.711Z,1.6
2022-09-14T23:44:56.337Z,1.5
2022-09-14T23:49:58.359Z,1.3
2022-09-14T23:55:00.538Z,1.4
